sensor_id;sensor_type;location;lat;lon;timestamp;pressure;altitude;pressure_sealevel;temperature;humidity
56671;BME280;42545;50.054;8.306;2023-03-23T00:01:09;99144.34;;;12.65;62.86
56671;BME280;42545;50.054;8.306;2023-03-23T00:03:47;99138.16;;;12.64;62.95
56671;BME280;42545;50.054;8.306;2023-03-23T00:06:16;99135.50;;;12.63;63.08
56671;BME280;42545;50.054;8.306;2023-03-23T00:08:45;99134.63;;;12.62;63.43
56671;BME280;42545;50.054;8.306;2023-03-23T00:11:12;99137.28;;;12.59;63.69
56671;BME280;42545;50.054;8.306;2023-03-23T00:13:42;99139.06;;;12.59;63.41
56671;BME280;42545;50.054;8.306;2023-03-23T00:16:11;99128.53;;;12.54;63.85
56671;BME280;42545;50.054;8.306;2023-03-23T00:18:49;99140.88;;;12.54;64.14
56671;BME280;42545;50.054;8.306;2023-03-23T00:21:17;99133.84;;;12.49;64.42
56671;BME280;42545;50.054;8.306;2023-03-23T00:23:45;99134.75;;;12.45;64.31
56671;BME280;42545;50.054;8.306;2023-03-23T00:26:13;99132.13;;;12.42;64.46
56671;BME280;42545;50.054;8.306;2023-03-23T00:28:39;99131.25;;;12.39;64.69
56671;BME280;42545;50.054;8.306;2023-03-23T00:31:08;99133.91;;;12.37;65.21
56671;BME280;42545;50.054;8.306;2023-03-23T00:33:37;99130.44;;;12.32;65.36
56671;BME280;42545;50.054;8.306;2023-03-23T00:36:08;99120.72;;;12.28;65.72
56671;BME280;42545;50.054;8.306;2023-03-23T00:38:36;99107.56;;;12.23;66.03
56671;BME280;42545;50.054;8.306;2023-03-23T00:41:04;99104.91;;;12.22;66.34
56671;BME280;42545;50.054;8.306;2023-03-23T00:43:31;99111.97;;;12.18;66.65
56671;BME280;42545;50.054;8.306;2023-03-23T00:46:01;99101.41;;;12.15;66.56
56671;BME280;42545;50.054;8.306;2023-03-23T00:48:34;99091.75;;;12.13;67.10
56671;BME280;42545;50.054;8.306;2023-03-23T00:51:02;99102.31;;;12.08;66.86
56671;BME280;42545;50.054;8.306;2023-03-23T00:53:32;99101.47;;;12.06;67.41
56671;BME280;42545;50.054;8.306;2023-03-23T00:55:59;99097.94;;;12.04;67.53
56671;BME280;42545;50.054;8.306;2023-03-23T00:58:26;99106.75;;;12.04;67.77
56671;BME280;42545;50.054;8.306;2023-03-23T01:00:53;99110.31;;;12.03;68.17
56671;BME280;42545;50.054;8.306;2023-03-23T01:03:19;99104.16;;;12.01;68.11
56671;BME280;42545;50.054;8.306;2023-03-23T01:05:46;99104.16;;;12.01;68.25
56671;BME280;42545;50.054;8.306;2023-03-23T01:08:14;99105.03;;;11.97;68.34
56671;BME280;42545;50.054;8.306;2023-03-23T01:10:43;99106.78;;;11.97;68.33
56671;BME280;42545;50.054;8.306;2023-03-23T01:13:10;99098.88;;;11.93;68.69
56671;BME280;42545;50.054;8.306;2023-03-23T01:15:37;99112.13;;;11.90;68.75
56671;BME280;42545;50.054;8.306;2023-03-23T01:18:04;99115.59;;;11.88;68.97
56671;BME280;42545;50.054;8.306;2023-03-23T01:20:31;99113.88;;;11.85;69.15
56671;BME280;42545;50.054;8.306;2023-03-23T01:22:58;99118.28;;;11.83;69.22
56671;BME280;42545;50.054;8.306;2023-03-23T01:25:27;99117.41;;;11.78;69.13
56671;BME280;42545;50.054;8.306;2023-03-23T01:27:56;99118.28;;;11.80;69.07
56671;BME280;42545;50.054;8.306;2023-03-23T01:30:24;99106.84;;;11.78;69.34
56671;BME280;42545;50.054;8.306;2023-03-23T01:32:52;99100.69;;;11.76;69.35
56671;BME280;42545;50.054;8.306;2023-03-23T01:35:18;99102.47;;;11.76;69.87
56671;BME280;42545;50.054;8.306;2023-03-23T01:37:45;99098.03;;;11.71;70.09
56671;BME280;42545;50.054;8.306;2023-03-23T01:40:13;99086.59;;;11.68;70.20
56671;BME280;42545;50.054;8.306;2023-03-23T01:42:40;99096.31;;;11.66;70.36
56671;BME280;42545;50.054;8.306;2023-03-23T01:45:29;99073.47;;;11.56;71.06
56671;BME280;42545;50.054;8.306;2023-03-23T01:48:00;99095.44;;;11.61;70.67
56671;BME280;42545;50.054;8.306;2023-03-23T01:50:29;99084.91;;;11.59;70.82
56671;BME280;42545;50.054;8.306;2023-03-23T01:53:01;99081.34;;;11.60;71.30
56671;BME280;42545;50.054;8.306;2023-03-23T01:55:32;99088.41;;;11.60;70.82
56671;BME280;42545;50.054;8.306;2023-03-23T01:57:59;99089.28;;;11.62;71.12
56671;BME280;42545;50.054;8.306;2023-03-23T02:00:28;99091.06;;;11.61;70.89
56671;BME280;42545;50.054;8.306;2023-03-23T02:02:57;99091.91;;;11.68;70.66
56671;BME280;42545;50.054;8.306;2023-03-23T02:05:27;99083.09;;;11.72;70.62
56671;BME280;42545;50.054;8.306;2023-03-23T02:07:58;99080.41;;;11.75;70.41
56671;BME280;42545;50.054;8.306;2023-03-23T02:10:29;99080.41;;;11.80;70.08
56671;BME280;42545;50.054;8.306;2023-03-23T02:12:56;99078.63;;;11.85;70.01
56671;BME280;42545;50.054;8.306;2023-03-23T02:15:25;99078.63;;;11.92;69.22
56671;BME280;42545;50.054;8.306;2023-03-23T02:18:00;99065.38;;;11.97;69.34
56671;BME280;42545;50.054;8.306;2023-03-23T02:20:52;99061.84;;;12.01;68.91
56671;BME280;42545;50.054;8.306;2023-03-23T02:23:40;99065.31;;;12.06;68.66
56671;BME280;42545;50.054;8.306;2023-03-23T02:26:21;99053.81;;;12.14;68.02
56671;BME280;42545;50.054;8.306;2023-03-23T02:29:07;99060.81;;;12.19;67.06
56671;BME280;42545;50.054;8.306;2023-03-23T02:31:56;99070.53;;;12.23;67.42
56671;BME280;42545;50.054;8.306;2023-03-23T02:34:32;99066.97;;;12.27;67.32
56671;BME280;42545;50.054;8.306;2023-03-23T02:37:04;99073.13;;;12.31;67.79
56671;BME280;42545;50.054;8.306;2023-03-23T02:39:34;99053.72;;;12.30;69.27
56671;BME280;42545;50.054;8.306;2023-03-23T02:42:05;99052.88;;;12.27;70.01
56671;BME280;42545;50.054;8.306;2023-03-23T02:44:34;99042.34;;;12.18;71.27
56671;BME280;42545;50.054;8.306;2023-03-23T02:47:04;99042.41;;;12.07;72.51
56671;BME280;42545;50.054;8.306;2023-03-23T02:49:34;99040.69;;;11.98;73.79
56671;BME280;42545;50.054;8.306;2023-03-23T02:52:10;99044.22;;;11.89;73.94
56671;BME280;42545;50.054;8.306;2023-03-23T02:54:41;99042.50;;;11.81;74.80
56671;BME280;42545;50.054;8.306;2023-03-23T02:57:09;99050.47;;;11.78;75.54
56671;BME280;42545;50.054;8.306;2023-03-23T02:59:36;99037.31;;;11.67;76.68
56671;BME280;42545;50.054;8.306;2023-03-23T03:02:06;99044.38;;;11.65;76.75
56671;BME280;42545;50.054;8.306;2023-03-23T03:04:38;99032.06;;;11.58;77.55
56671;BME280;42545;50.054;8.306;2023-03-23T03:07:16;99032.06;;;11.54;78.62
56671;BME280;42545;50.054;8.306;2023-03-23T03:09:51;99028.56;;;11.56;78.54
56671;BME280;42545;50.054;8.306;2023-03-23T03:12:26;99029.41;;;11.56;78.72
56671;BME280;42545;50.054;8.306;2023-03-23T03:14:59;99025.91;;;11.56;78.85
56671;BME280;42545;50.054;8.306;2023-03-23T03:17:31;99034.72;;;11.53;79.40
56671;BME280;42545;50.054;8.306;2023-03-23T03:20:02;99044.41;;;11.51;80.31
56671;BME280;42545;50.054;8.306;2023-03-23T03:22:33;99037.38;;;11.47;80.76
56671;BME280;42545;50.054;8.306;2023-03-23T03:25:03;99036.50;;;11.43;80.91
56671;BME280;42545;50.054;8.306;2023-03-23T03:27:32;99032.09;;;11.41;81.39
56671;BME280;42545;50.054;8.306;2023-03-23T03:30:02;99029.50;;;11.39;81.30
56671;BME280;42545;50.054;8.306;2023-03-23T03:32:36;99040.06;;;11.39;81.40
56671;BME280;42545;50.054;8.306;2023-03-23T03:35:07;99039.16;;;11.43;81.35
56671;BME280;42545;50.054;8.306;2023-03-23T03:37:35;99036.50;;;11.45;81.28
56671;BME280;42545;50.054;8.306;2023-03-23T03:40:05;99029.47;;;11.48;80.97
56671;BME280;42545;50.054;8.306;2023-03-23T03:42:36;99033.84;;;11.52;81.18
56671;BME280;42545;50.054;8.306;2023-03-23T03:45:03;99032.94;;;11.53;80.61
56671;BME280;42545;50.054;8.306;2023-03-23T03:47:30;99025.91;;;11.54;80.65
56671;BME280;42545;50.054;8.306;2023-03-23T03:49:57;99036.44;;;11.62;80.10
56671;BME280;42545;50.054;8.306;2023-03-23T03:52:25;99028.50;;;11.62;80.07
56671;BME280;42545;50.054;8.306;2023-03-23T03:54:52;99032.03;;;11.64;80.24
56671;BME280;42545;50.054;8.306;2023-03-23T03:57:19;99040.81;;;11.64;79.98
56671;BME280;42545;50.054;8.306;2023-03-23T03:59:46;99028.50;;;11.62;79.95
56671;BME280;42545;50.054;8.306;2023-03-23T04:02:13;99040.81;;;11.64;80.02
56671;BME280;42545;50.054;8.306;2023-03-23T04:04:45;99034.66;;;11.65;80.16
56671;BME280;42545;50.054;8.306;2023-03-23T04:07:12;99043.50;;;11.63;80.41
56671;BME280;42545;50.054;8.306;2023-03-23T04:09:43;99035.56;;;11.58;80.78
56671;BME280;42545;50.054;8.306;2023-03-23T04:12:11;99047.91;;;11.58;81.14
56671;BME280;42545;50.054;8.306;2023-03-23T04:14:38;99061.13;;;11.56;81.21
56671;BME280;42545;50.054;8.306;2023-03-23T04:17:05;99058.47;;;11.54;81.30
56671;BME280;42545;50.054;8.306;2023-03-23T04:19:34;99064.66;;;11.52;81.44
56671;BME280;42545;50.054;8.306;2023-03-23T04:22:02;99063.75;;;11.51;81.57
56671;BME280;42545;50.054;8.306;2023-03-23T04:24:29;99069.94;;;11.49;81.92
56671;BME280;42545;50.054;8.306;2023-03-23T04:26:59;99074.38;;;11.47;81.76
56671;BME280;42545;50.054;8.306;2023-03-23T04:29:26;99071.72;;;11.42;81.96
56671;BME280;42545;50.054;8.306;2023-03-23T04:31:53;99072.63;;;11.43;82.31
56671;BME280;42545;50.054;8.306;2023-03-23T04:34:21;99077.91;;;11.43;82.08
56671;BME280;42545;50.054;8.306;2023-03-23T04:36:48;99071.72;;;11.47;81.58
56671;BME280;42545;50.054;8.306;2023-03-23T04:39:17;99069.91;;;11.53;81.43
56671;BME280;42545;50.054;8.306;2023-03-23T04:41:44;99081.34;;;11.57;81.04
56671;BME280;42545;50.054;8.306;2023-03-23T04:44:15;99072.56;;;11.63;80.78
56671;BME280;42545;50.054;8.306;2023-03-23T04:46:44;99070.78;;;11.66;80.41
56671;BME280;42545;50.054;8.306;2023-03-23T04:49:15;99068.09;;;11.71;80.05
56671;BME280;42545;50.054;8.306;2023-03-23T04:51:46;99072.47;;;11.78;79.95
56671;BME280;42545;50.054;8.306;2023-03-23T04:54:13;99076.00;;;11.80;79.98
56671;BME280;42545;50.054;8.306;2023-03-23T04:56:40;99080.38;;;11.84;79.36
56671;BME280;42545;50.054;8.306;2023-03-23T04:59:08;99067.19;;;11.83;79.13
56671;BME280;42545;50.054;8.306;2023-03-23T05:01:36;99068.06;;;11.92;79.12
56671;BME280;42545;50.054;8.306;2023-03-23T05:04:04;99071.56;;;11.93;79.08
56671;BME280;42545;50.054;8.306;2023-03-23T05:06:32;99082.13;;;11.96;78.92
56671;BME280;42545;50.054;8.306;2023-03-23T05:08:58;99083.91;;;11.96;79.45
56671;BME280;42545;50.054;8.306;2023-03-23T05:11:26;99086.56;;;11.96;79.43
56671;BME280;42545;50.054;8.306;2023-03-23T05:13:53;99082.13;;;11.95;79.70
56671;BME280;42545;50.054;8.306;2023-03-23T05:16:20;99088.28;;;11.97;79.76
56671;BME280;42545;50.054;8.306;2023-03-23T05:18:51;99092.72;;;11.96;79.97
56671;BME280;42545;50.054;8.306;2023-03-23T05:21:18;99077.72;;;11.93;80.01
56671;BME280;42545;50.054;8.306;2023-03-23T05:23:46;99088.28;;;11.93;80.33
56671;BME280;42545;50.054;8.306;2023-03-23T05:26:19;99092.72;;;11.93;80.89
56671;BME280;42545;50.054;8.306;2023-03-23T05:28:46;99086.56;;;11.91;81.10
56671;BME280;42545;50.054;8.306;2023-03-23T05:31:13;99091.84;;;11.91;81.24
56671;BME280;42545;50.054;8.306;2023-03-23T05:33:40;99087.44;;;11.90;81.37
56671;BME280;42545;50.054;8.306;2023-03-23T05:36:08;99090.94;;;11.89;81.58
56671;BME280;42545;50.054;8.306;2023-03-23T05:38:38;99088.31;;;11.87;82.01
56671;BME280;42545;50.054;8.306;2023-03-23T05:41:07;99089.16;;;11.86;82.29
56671;BME280;42545;50.054;8.306;2023-03-23T05:43:34;99088.31;;;11.84;82.75
56671;BME280;42545;50.054;8.306;2023-03-23T05:46:01;99083.91;;;11.83;82.90
56671;BME280;42545;50.054;8.306;2023-03-23T05:48:28;99096.25;;;11.81;82.91
56671;BME280;42545;50.054;8.306;2023-03-23T05:50:54;99111.25;;;11.79;83.13
56671;BME280;42545;50.054;8.306;2023-03-23T05:53:23;99118.28;;;11.77;83.48
56671;BME280;42545;50.054;8.306;2023-03-23T05:55:49;99119.19;;;11.76;83.21
56671;BME280;42545;50.054;8.306;2023-03-23T05:58:16;99112.16;;;11.72;84.13
56671;BME280;42545;50.054;8.306;2023-03-23T06:00:43;99111.25;;;11.71;84.31
56671;BME280;42545;50.054;8.306;2023-03-23T06:03:11;99104.22;;;11.67;84.22
56671;BME280;42545;50.054;8.306;2023-03-23T06:05:42;99109.53;;;11.67;84.53
56671;BME280;42545;50.054;8.306;2023-03-23T06:08:09;99120.09;;;11.66;85.09
56671;BME280;42545;50.054;8.306;2023-03-23T06:10:38;99122.75;;;11.63;85.45
56671;BME280;42545;50.054;8.306;2023-03-23T06:13:04;99124.50;;;11.61;85.80
56671;BME280;42545;50.054;8.306;2023-03-23T06:15:31;99124.53;;;11.59;86.17
56671;BME280;42545;50.054;8.306;2023-03-23T06:17:58;99115.69;;;11.60;86.32
56671;BME280;42545;50.054;8.306;2023-03-23T06:20:25;99125.41;;;11.60;86.60
56671;BME280;42545;50.054;8.306;2023-03-23T06:22:52;99120.13;;;11.60;87.01
56671;BME280;42545;50.054;8.306;2023-03-23T06:25:19;99116.59;;;11.58;87.16
56671;BME280;42545;50.054;8.306;2023-03-23T06:27:47;99121.88;;;11.56;87.88
56671;BME280;42545;50.054;8.306;2023-03-23T06:30:17;99128.91;;;11.57;87.90
56671;BME280;42545;50.054;8.306;2023-03-23T06:32:45;99141.25;;;11.57;88.14
56671;BME280;42545;50.054;8.306;2023-03-23T06:35:13;99147.44;;;11.56;88.41
56671;BME280;42545;50.054;8.306;2023-03-23T06:37:40;99142.16;;;11.56;88.80
56671;BME280;42545;50.054;8.306;2023-03-23T06:40:08;99152.72;;;11.56;88.90
56671;BME280;42545;50.054;8.306;2023-03-23T06:42:36;99149.19;;;11.55;89.37
56671;BME280;42545;50.054;8.306;2023-03-23T06:45:05;99143.88;;;11.53;89.50
56671;BME280;42545;50.054;8.306;2023-03-23T06:47:32;99151.81;;;11.53;89.52
56671;BME280;42545;50.054;8.306;2023-03-23T06:49:59;99143.03;;;11.56;89.91
56671;BME280;42545;50.054;8.306;2023-03-23T06:52:27;99128.03;;;11.55;89.63
56671;BME280;42545;50.054;8.306;2023-03-23T06:54:55;99133.31;;;11.60;90.03
56671;BME280;42545;50.054;8.306;2023-03-23T06:57:22;99126.28;;;11.59;90.03
56671;BME280;42545;50.054;8.306;2023-03-23T06:59:49;99139.47;;;11.59;90.07
56671;BME280;42545;50.054;8.306;2023-03-23T07:02:17;99129.81;;;11.58;90.06
56671;BME280;42545;50.054;8.306;2023-03-23T07:04:44;99138.63;;;11.61;90.32
56671;BME280;42545;50.054;8.306;2023-03-23T07:07:11;99135.09;;;11.54;90.31
56671;BME280;42545;50.054;8.306;2023-03-23T07:09:40;99150.06;;;11.60;90.63
56671;BME280;42545;50.054;8.306;2023-03-23T07:12:07;99149.19;;;11.60;90.87
56671;BME280;42545;50.054;8.306;2023-03-23T07:14:35;99150.97;;;11.59;90.92
56671;BME280;42545;50.054;8.306;2023-03-23T07:17:03;99143.03;;;11.58;90.73
56671;BME280;42545;50.054;8.306;2023-03-23T07:19:32;99140.38;;;11.58;91.16
56671;BME280;42545;50.054;8.306;2023-03-23T07:21:59;99143.91;;;11.58;91.26
56671;BME280;42545;50.054;8.306;2023-03-23T07:24:26;99157.97;;;11.57;91.54
56671;BME280;42545;50.054;8.306;2023-03-23T07:26:53;99163.25;;;11.59;91.51
56671;BME280;42545;50.054;8.306;2023-03-23T07:29:19;99163.25;;;11.59;91.68
56671;BME280;42545;50.054;8.306;2023-03-23T07:31:46;99146.53;;;11.58;91.78
56671;BME280;42545;50.054;8.306;2023-03-23T07:34:13;99152.69;;;11.63;92.70
56671;BME280;42545;50.054;8.306;2023-03-23T07:36:43;99161.50;;;11.64;92.78
56671;BME280;42545;50.054;8.306;2023-03-23T07:39:09;99154.44;;;11.69;92.85
56671;BME280;42545;50.054;8.306;2023-03-23T07:41:37;99157.97;;;11.74;93.21
56671;BME280;42545;50.054;8.306;2023-03-23T07:44:04;99155.28;;;11.77;93.32
56671;BME280;42545;50.054;8.306;2023-03-23T07:46:31;99160.56;;;11.80;93.27
56671;BME280;42545;50.054;8.306;2023-03-23T07:49:01;99165.84;;;11.85;93.36
56671;BME280;42545;50.054;8.306;2023-03-23T07:51:30;99163.22;;;11.85;93.65
56671;BME280;42545;50.054;8.306;2023-03-23T07:54:01;99173.75;;;11.88;93.42
56671;BME280;42545;50.054;8.306;2023-03-23T07:56:29;99170.25;;;11.87;93.24
56671;BME280;42545;50.054;8.306;2023-03-23T07:58:56;99177.31;;;11.87;93.01
56671;BME280;42545;50.054;8.306;2023-03-23T08:01:22;99182.59;;;11.88;93.19
56671;BME280;42545;50.054;8.306;2023-03-23T08:03:50;99179.03;;;11.86;92.90
56671;BME280;42545;50.054;8.306;2023-03-23T08:06:17;99179.03;;;11.86;93.19
56671;BME280;42545;50.054;8.306;2023-03-23T08:08:44;99180.81;;;11.89;92.99
56671;BME280;42545;50.054;8.306;2023-03-23T08:11:13;99172.88;;;11.89;92.62
56671;BME280;42545;50.054;8.306;2023-03-23T08:13:40;99179.94;;;11.90;92.72
56671;BME280;42545;50.054;8.306;2023-03-23T08:16:09;99181.72;;;11.92;92.75
56671;BME280;42545;50.054;8.306;2023-03-23T08:18:36;99181.72;;;11.96;92.41
56671;BME280;42545;50.054;8.306;2023-03-23T08:21:04;99184.34;;;11.99;92.26
56671;BME280;42545;50.054;8.306;2023-03-23T08:23:33;99194.91;;;12.03;92.15
56671;BME280;42545;50.054;8.306;2023-03-23T08:26:01;99201.06;;;12.04;92.04
56671;BME280;42545;50.054;8.306;2023-03-23T08:28:29;99201.94;;;12.07;91.57
56671;BME280;42545;50.054;8.306;2023-03-23T08:30:57;99210.75;;;12.09;91.45
56671;BME280;42545;50.054;8.306;2023-03-23T08:33:24;99204.56;;;12.04;91.20
56671;BME280;42545;50.054;8.306;2023-03-23T08:35:55;99212.50;;;12.09;90.87
56671;BME280;42545;50.054;8.306;2023-03-23T08:38:22;99222.19;;;12.13;91.12
56671;BME280;42545;50.054;8.306;2023-03-23T08:40:49;99215.13;;;12.17;90.83
56671;BME280;42545;50.054;8.306;2023-03-23T08:43:17;99220.38;;;12.23;90.91
56671;BME280;42545;50.054;8.306;2023-03-23T08:45:45;99214.19;;;12.31;90.33
56671;BME280;42545;50.054;8.306;2023-03-23T08:48:13;99200.03;;;12.40;89.99
56671;BME280;42545;50.054;8.306;2023-03-23T08:50:40;99200.84;;;12.52;89.98
56671;BME280;42545;50.054;8.306;2023-03-23T08:53:07;99214.91;;;12.64;89.00
56671;BME280;42545;50.054;8.306;2023-03-23T08:55:34;99203.38;;;12.75;88.69
56671;BME280;42545;50.054;8.306;2023-03-23T08:58:00;99205.97;;;12.81;87.69
56671;BME280;42545;50.054;8.306;2023-03-23T09:00:28;99211.22;;;12.90;87.81
56671;BME280;42545;50.054;8.306;2023-03-23T09:02:57;99204.13;;;12.97;86.38
56671;BME280;42545;50.054;8.306;2023-03-23T09:05:25;99198.78;;;13.03;86.77
56671;BME280;42545;50.054;8.306;2023-03-23T09:07:54;99214.63;;;13.09;85.90
56671;BME280;42545;50.054;8.306;2023-03-23T09:10:23;99208.41;;;13.16;85.15
56671;BME280;42545;50.054;8.306;2023-03-23T09:12:53;99196.88;;;13.20;84.78
56671;BME280;42545;50.054;8.306;2023-03-23T09:15:21;99197.72;;;13.25;84.88
56671;BME280;42545;50.054;8.306;2023-03-23T09:17:50;99187.94;;;13.37;83.55
56671;BME280;42545;50.054;8.306;2023-03-23T09:20:20;99191.38;;;13.48;83.21
56671;BME280;42545;50.054;8.306;2023-03-23T09:22:48;99186.81;;;13.62;81.32
56671;BME280;42545;50.054;8.306;2023-03-23T09:25:17;99200.84;;;13.74;79.84
56671;BME280;42545;50.054;8.306;2023-03-23T09:27:48;99215.72;;;13.89;77.78
56671;BME280;42545;50.054;8.306;2023-03-23T09:30:18;99223.56;;;13.98;77.30
56671;BME280;42545;50.054;8.306;2023-03-23T09:32:45;99206.75;;;14.02;76.94
56671;BME280;42545;50.054;8.306;2023-03-23T09:35:13;99210.34;;;13.96;73.45
56671;BME280;42545;50.054;8.306;2023-03-23T09:37:44;99207.72;;;13.93;71.74
56671;BME280;42545;50.054;8.306;2023-03-23T09:40:14;99213.91;;;13.92;71.95
56671;BME280;42545;50.054;8.306;2023-03-23T09:42:57;99206.84;;;13.93;72.84
56671;BME280;42545;50.054;8.306;2023-03-23T09:45:31;99218.38;;;13.87;73.71
56671;BME280;42545;50.054;8.306;2023-03-23T09:48:16;99220.22;;;13.82;73.01
56671;BME280;42545;50.054;8.306;2023-03-23T09:50:52;99222.03;;;13.75;74.79
56671;BME280;42545;50.054;8.306;2023-03-23T09:53:26;99218.56;;;13.70;75.52
56671;BME280;42545;50.054;8.306;2023-03-23T09:56:00;99222.19;;;13.60;76.32
56671;BME280;42545;50.054;8.306;2023-03-23T09:58:32;99234.63;;;13.50;75.67
56671;BME280;42545;50.054;8.306;2023-03-23T10:01:02;99233.84;;;13.40;76.67
56671;BME280;42545;50.054;8.306;2023-03-23T10:03:37;99230.34;;;13.35;77.55
56671;BME280;42545;50.054;8.306;2023-03-23T10:06:07;99235.66;;;13.34;78.01
56671;BME280;42545;50.054;8.306;2023-03-23T10:08:40;99240.09;;;13.27;79.19
56671;BME280;42545;50.054;8.306;2023-03-23T10:11:15;99243.66;;;13.23;79.50
56671;BME280;42545;50.054;8.306;2023-03-23T10:13:53;99238.41;;;13.18;80.11
56671;BME280;42545;50.054;8.306;2023-03-23T10:16:26;99229.53;;;13.21;80.73
56671;BME280;42545;50.054;8.306;2023-03-23T10:18:58;99238.34;;;13.21;79.99
56671;BME280;42545;50.054;8.306;2023-03-23T10:21:26;99238.34;;;13.23;80.02
56671;BME280;42545;50.054;8.306;2023-03-23T10:24:00;99238.34;;;13.24;78.84
56671;BME280;42545;50.054;8.306;2023-03-23T10:26:35;99251.56;;;13.27;79.35
56671;BME280;42545;50.054;8.306;2023-03-23T10:29:14;99250.66;;;13.30;79.13
56671;BME280;42545;50.054;8.306;2023-03-23T10:31:49;99251.59;;;13.31;79.01
56671;BME280;42545;50.054;8.306;2023-03-23T10:34:24;99250.69;;;13.32;78.10
56671;BME280;42545;50.054;8.306;2023-03-23T10:37:01;99239.22;;;13.25;76.96
56671;BME280;42545;50.054;8.306;2023-03-23T10:39:38;99245.44;;;13.22;76.37
56671;BME280;42545;50.054;8.306;2023-03-23T10:42:08;99255.16;;;13.22;76.07
56671;BME280;42545;50.054;8.306;2023-03-23T10:44:45;99248.94;;;13.26;76.59
56671;BME280;42545;50.054;8.306;2023-03-23T10:47:11;99254.22;;;13.29;76.38
56671;BME280;42545;50.054;8.306;2023-03-23T10:49:43;99254.22;;;13.29;76.55
56671;BME280;42545;50.054;8.306;2023-03-23T10:52:23;99239.22;;;13.25;76.18
56671;BME280;42545;50.054;8.306;2023-03-23T10:54:56;99248.06;;;13.25;75.78
56671;BME280;42545;50.054;8.306;2023-03-23T10:57:25;99245.41;;;13.25;76.72
56671;BME280;42545;50.054;8.306;2023-03-23T10:59:59;99248.94;;;13.27;77.19
56671;BME280;42545;50.054;8.306;2023-03-23T11:02:31;99247.16;;;13.28;77.13
56671;BME280;42545;50.054;8.306;2023-03-23T11:05:01;99238.28;;;13.35;77.59
56671;BME280;42545;50.054;8.306;2023-03-23T11:07:33;99248.81;;;13.46;77.82
56671;BME280;42545;50.054;8.306;2023-03-23T11:10:16;99244.38;;;13.50;75.82
56671;BME280;42545;50.054;8.306;2023-03-23T11:12:44;99246.00;;;13.63;77.08
56671;BME280;42545;50.054;8.306;2023-03-23T11:15:25;99258.28;;;13.73;77.57
56671;BME280;42545;50.054;8.306;2023-03-23T11:17:57;99264.44;;;13.80;77.14
56671;BME280;42545;50.054;8.306;2023-03-23T11:20:25;99265.22;;;13.87;76.77
56671;BME280;42545;50.054;8.306;2023-03-23T11:22:54;99268.72;;;13.93;77.25
56671;BME280;42545;50.054;8.306;2023-03-23T11:25:22;99265.16;;;13.94;77.12
56671;BME280;42545;50.054;8.306;2023-03-23T11:27:49;99257.16;;;13.99;76.40
56671;BME280;42545;50.054;8.306;2023-03-23T11:30:24;99255.38;;;13.99;75.13
56671;BME280;42545;50.054;8.306;2023-03-23T11:32:52;99258.00;;;14.02;75.54
56671;BME280;42545;50.054;8.306;2023-03-23T11:35:22;99250.91;;;14.04;75.84
56671;BME280;42545;50.054;8.306;2023-03-23T11:37:54;99260.59;;;14.07;75.41
56671;BME280;42545;50.054;8.306;2023-03-23T11:40:24;99261.50;;;14.09;75.20
56671;BME280;42545;50.054;8.306;2023-03-23T11:42:58;99261.50;;;14.09;74.82
56671;BME280;42545;50.054;8.306;2023-03-23T11:45:35;99257.06;;;14.08;74.41
56671;BME280;42545;50.054;8.306;2023-03-23T11:48:12;99257.16;;;13.99;74.11
56671;BME280;42545;50.054;8.306;2023-03-23T11:50:47;99257.25;;;13.88;73.82
56671;BME280;42545;50.054;8.306;2023-03-23T11:53:22;99258.19;;;13.86;74.45
56671;BME280;42545;50.054;8.306;2023-03-23T11:55:58;99267.97;;;13.80;74.49
56671;BME280;42545;50.054;8.306;2023-03-23T11:58:27;99272.44;;;13.72;75.03
56671;BME280;42545;50.054;8.306;2023-03-23T12:01:02;99256.59;;;13.63;75.20
56671;BME280;42545;50.054;8.306;2023-03-23T12:03:47;99244.34;;;13.51;75.88
56671;BME280;42545;50.054;8.306;2023-03-23T12:06:24;99250.53;;;13.49;77.05
56671;BME280;42545;50.054;8.306;2023-03-23T12:09:06;99248.81;;;13.48;77.35
56671;BME280;42545;50.054;8.306;2023-03-23T12:11:39;99240.81;;;13.51;77.45
56671;BME280;42545;50.054;8.306;2023-03-23T12:14:16;99241.63;;;13.62;78.20
56671;BME280;42545;50.054;8.306;2023-03-23T12:16:53;99235.31;;;13.74;77.99
56671;BME280;42545;50.054;8.306;2023-03-23T12:19:30;99229.03;;;13.82;77.40
56671;BME280;42545;50.054;8.306;2023-03-23T12:22:04;99215.66;;;13.96;77.06
56671;BME280;42545;50.054;8.306;2023-03-23T12:24:50;99218.09;;;14.15;77.31
56671;BME280;42545;50.054;8.306;2023-03-23T12:27:25;99210.03;;;14.22;76.33
56671;BME280;42545;50.054;8.306;2023-03-23T12:30:08;99195.72;;;14.33;76.41
56671;BME280;42545;50.054;8.306;2023-03-23T12:32:46;99185.91;;;14.42;74.84
56671;BME280;42545;50.054;8.306;2023-03-23T12:35:26;99184.91;;;14.50;74.92
56671;BME280;42545;50.054;8.306;2023-03-23T12:38:04;99183.03;;;14.59;74.29
56671;BME280;42545;50.054;8.306;2023-03-23T12:40:55;99195.38;;;14.64;74.23
56671;BME280;42545;50.054;8.306;2023-03-23T12:43:33;99187.38;;;14.65;74.28
56671;BME280;42545;50.054;8.306;2023-03-23T12:46:20;99195.44;;;14.59;74.66
56671;BME280;42545;50.054;8.306;2023-03-23T12:48:53;99204.31;;;14.55;74.97
56671;BME280;42545;50.054;8.306;2023-03-23T12:51:24;99196.31;;;14.56;74.10
56671;BME280;42545;50.054;8.306;2023-03-23T12:53:58;99192.66;;;14.70;74.99
56671;BME280;42545;50.054;8.306;2023-03-23T12:56:32;99203.06;;;14.82;75.25
56671;BME280;42545;50.054;8.306;2023-03-23T12:59:09;99212.56;;;14.98;74.69
56671;BME280;42545;50.054;8.306;2023-03-23T13:01:42;99222.16;;;15.09;73.62
56671;BME280;42545;50.054;8.306;2023-03-23T13:04:12;99227.19;;;15.26;74.82
56671;BME280;42545;50.054;8.306;2023-03-23T13:06:43;99219.22;;;15.26;72.80
56671;BME280;42545;50.054;8.306;2023-03-23T13:09:15;99204.13;;;15.29;73.03
56671;BME280;42545;50.054;8.306;2023-03-23T13:11:43;99186.56;;;15.21;71.15
56671;BME280;42545;50.054;8.306;2023-03-23T13:14:34;99180.25;;;15.26;73.26
56671;BME280;42545;50.054;8.306;2023-03-23T13:17:13;99173.03;;;15.34;73.00